Forside
METAR-TAF:

METAR-TAF

Lufthavne :

Sønderborg Lufthavn

Sønderborg, Danmark

Breddekreds: 54-58N, længdekreds: 009-47E, højde: 7 m

Aktuelle vejr

Denne rapport blev lavet for 27 minutter siden, kl. 10:20 UTC
Vind 9 kt fra sydøst
Temperatur 8°C
Fugtighed 93%
Tryk 1004 hPa
Sigt: 7000 m

METAR: EKSB 021020Z AUTO 14009KT 7000 SCT120/// 08/07 Q1004

Tid: 11:47 (10:47 UTC)

Vejrudsigter

Denne rapport blev lavet for 17 timer og 4 minutter siden, kl. 17:43 UTC
Foreløbig gælder fra 01 på 18 UTC til 01 på 23 UTC
Vind 6 kt fra sydsydøst
Sigt 10 km eller mere
Brudte skyer i en højde af 2500 ft
Midlertidig
fra 01 på 20 UTC til 01 på 23 UTC
Sigt: 2500 m
dis,

TAF: EKSB 011743Z 0118/0123 15006KT 9999 BKN025 TEMPO 0120/0123 2500 BR

Vejrobservationer og prognoser fra mere end 4000 lufthavne (METAR og TAF).

De gule og røde prikker repræsenterer de meteorologiske stationer.

Flyt musen over at se navnet på stationen.

Så klik over at se vejr observationer og prognoser.

At skifte det kort: Klik på de grønne knapper med et sort kors for at zoome ind; på den grønne knap med en bindestreg for at zoome ud; eller på de grønne pile for tilstødende kort.


METAR-TAF: